Sand Hill, Texas
Current Conditions -  °F | °C
As of 7:35 AM on Saturday 25 Oct 2014 (Local Time) from KOSA Reporting Station
Clear Clear  
Wind Chill: 55°   Ceiling: Unl
Heat Index: 55°   Visibility: 4mi
Dew Point: 55°   Wind: 0mph
Humidity: 99%   Direction: NA
Pressure: 30.15"   Gusts: NA
Location:  32.7353°N, 94.9492°W
Report Text: KOSA 251235Z AUTO 00000KT 4SM CLR 13/13 A3015 RMK AO1 T01300129
Loading
Personal Weather Stations






























Interactive Weather Map
Tropical Storm Tracking
New forecast layout! Learn more

10-Day Weather Forecast

Advertisements
Track Severe Weather on mobile